首页
METAR-TAF:

METAR-TAF

机场 :

馬塔莫羅斯, 墨西哥

纬度: 25-46N, 经度: 097-32W, 海拔: 8米

当前天气观测

该预报发布于27分钟前的23:53 UTC
风速14节,风向
温度 31°C
湿度 71%
气压 1007 hPa
能見度: 6.4公里
散云层高于2000英尺

METAR: MMMA 202353Z 09014KT 4SM SCT020 31/25 A2974 RMK SLP068 57006 969 8/100 HZ

时间: 19:20 (00:20 UTC)

预报

该预报发布于7小时和15分钟前的17:05 UTC
预报有效从20日的 18点(UTC)到 21日的 18点(UTC)
风速10节,风向东转东南
能見度: 8.0公里
多云层高于2500英尺
从 20日的 2100点(UTC)
风速15节,风向东转东南
能見度: 9.7公里
散云层高于3000英尺
从 21日的 0100点(UTC)
风速5节,风向
能見度: 10公里
散云层高于2000英尺
从 21日的 0900点(UTC)
风速6节,风向东转东南
能見度: 4.8公里
多云层高于1500英尺
轻雾, 霾
短暂存在
从 21日的 11点(UTC)到 21日的 15点(UTC)
能見度: 0.8公里
层高于400英尺
从 21日的 1600点(UTC)
风速10节,风向东转东南
能見度: 6.4公里
多云层高于2000英尺
霾,

TAF: MMMA 201705Z 2018/2118 11010KT 5SM HZ BKN025 FM202100 12015KT 6SM HZ SCT030 FM210100 10005KT P6SM SCT020 FM210900 12006KT 3SM BR HZ BKN015 TEMPO 2111/2115 1/2SM FG VV004 FM211600 11010KT 4SM HZ BKN020

超过4000个机场的气象观测和天气预报(METAR&TAF报告)。

可查询的气象台以黄色和红色小点在地图上表示。

将鼠标移到小点上方,可查看气象台名称。

然后点击查看天气观测和预报。

如需切换地图:点击带黑十字的绿色按钮放大地图;点击带横线的绿色按钮缩小地图;或者点击绿色箭头查看邻近地区的地图。


METAR-TAF: